Time;durP1;ratioP1;P1;durP2;ratioP2;P2;SDS_P1;SDS_P2;PMS_P1;PMS_P2;Temp;Humidity;BMP_temperature;BMP_pressure;BME280_temperature;BME280_humidity;BME280_pressure;Samples;Min_cycle;Max_cycle;Signal;HPM_P1;HPM_P2
2021/05/03 00:01:48;;;;;;;6.60;6.10;;;;;;;9.05;69.09;95975.78;4887624;29;20706;-83
2021/05/03 00:04:14;;;;;;;6.37;5.87;;;;;;;8.97;69.09;95976.59;4895191;29;20196;-83
2021/05/03 00:06:40;;;;;;;6.20;5.70;;;;;;;8.91;68.86;95976.41;4888228;29;20214;-83
2021/05/03 00:09:06;;;;;;;6.30;5.80;;;;;;;8.93;69.43;95977.06;4887826;29;20211;-83
2021/05/03 00:11:33;;;;;;;6.27;5.77;;;;;;;8.97;69.23;95983.50;4902572;29;20318;-83
2021/05/03 00:13:59;;;;;;;6.43;5.93;;;;;;;8.99;69.43;95986.72;4895512;29;20226;-80
2021/05/03 00:16:25;;;;;;;6.03;5.53;;;;;;;8.97;70.07;95992.00;4889625;29;20195;-82
2021/05/03 00:18:52;;;;;;;6.20;5.70;;;;;;;8.92;69.85;95989.09;4902645;29;20234;-83
2021/05/03 00:21:18;;;;;;;6.00;5.50;;;;;;;8.92;69.96;95986.53;4898371;29;20203;-82
2021/05/03 00:23:44;;;;;;;6.23;5.67;;;;;;;8.90;70.07;95992.78;4883423;29;20227;-83
2021/05/03 00:26:11;;;;;;;6.17;5.67;;;;;;;8.89;70.00;95988.59;4888566;29;20204;-83
2021/05/03 00:28:37;;;;;;;5.93;5.43;;;;;;;8.96;69.83;95989.59;4901135;29;20262;-83
2021/05/03 00:31:03;;;;;;;5.50;5.10;;;;;;;8.95;70.39;95986.22;4899055;29;20197;-83
2021/05/03 00:33:29;;;;;;;5.73;5.27;;;;;;;8.91;70.36;95982.34;4883278;29;20223;-83
2021/05/03 00:35:56;;;;;;;5.90;5.40;;;;;;;8.91;70.76;95986.69;4886150;29;20199;-80
2021/05/03 00:38:21;;;;;;;5.67;5.17;;;;;;;8.96;70.50;95982.69;4896620;29;20203;-81
2021/05/03 00:40:48;;;;;;;5.83;5.33;;;;;;;8.84;70.80;95983.16;4884163;29;20315;-81
2021/05/03 00:43:18;;;;;;;6.47;5.87;;;;;;;8.89;70.73;95988.59;4900713;29;20223;-81
2021/05/03 00:45:44;;;;;;;6.20;5.70;;;;;;;8.90;71.55;95985.06;4884697;29;20698;-81
2021/05/03 00:48:10;;;;;;;6.20;5.70;;;;;;;8.87;70.99;95985.38;4901116;29;20207;-82
2021/05/03 00:50:37;;;;;;;6.23;5.73;;;;;;;8.87;71.17;95988.75;4887182;29;20635;-81
2021/05/03 00:53:04;;;;;;;6.00;5.50;;;;;;;8.89;71.27;95989.41;4901207;29;20274;-83
2021/05/03 00:55:30;;;;;;;6.10;5.60;;;;;;;8.94;71.12;95986.38;4885217;29;20200;-79
2021/05/03 00:57:56;;;;;;;6.10;5.60;;;;;;;8.92;71.86;95983.97;4901160;29;20262;-81
2021/05/03 01:00:25;;;;;;;6.63;6.03;;;;;;;8.94;72.14;95984.59;4885966;29;20283;-80
2021/05/03 01:02:51;;;;;;;5.97;5.47;;;;;;;8.89;71.76;95991.16;4885496;29;20231;-81
2021/05/03 01:05:19;;;;;;;6.07;5.57;;;;;;;8.77;72.16;95992.41;4901969;29;20685;-81
2021/05/03 01:07:45;;;;;;;6.17;5.67;;;;;;;8.72;72.45;95997.19;4889242;29;20389;-82
2021/05/03 01:10:13;;;;;;;6.47;5.97;;;;;;;8.75;73.25;95999.47;4900614;29;20237;-81
2021/05/03 01:12:39;;;;;;;7.00;6.30;;;;;;;8.76;73.14;96003.66;4900242;29;20222;-81
2021/05/03 01:15:07;;;;;;;6.50;6.00;;;;;;;8.61;74.05;96003.44;4897767;29;20203;-82
2021/05/03 01:17:34;;;;;;;7.13;6.53;;;;;;;8.63;74.42;96004.09;4897003;29;20213;-81
2021/05/03 01:20:07;;;;;;;7.13;6.53;;;;;;;8.61;74.21;95999.09;4898910;29;20226;-82
2021/05/03 01:22:34;;;;;;;7.20;6.60;;;;;;;8.60;73.86;96005.19;4900642;29;20234;-81
2021/05/03 01:25:00;;;;;;;7.40;6.80;;;;;;;8.51;73.69;96000.97;4894083;29;20207;-81
2021/05/03 01:27:26;;;;;;;8.70;7.20;;;;;;;8.51;73.79;96000.16;4892838;29;20243;-82
2021/05/03 01:29:52;;;;;;;7.87;7.17;;;;;;;8.57;74.14;96000.34;4881485;29;20555;-82
2021/05/03 01:32:18;;;;;;;8.33;7.53;;;;;;;8.50;74.02;95999.34;4883188;29;20224;-82
2021/05/03 01:34:44;;;;;;;7.83;7.13;;;;;;;8.53;73.76;95995.69;4900016;29;20233;-82
2021/05/03 01:37:12;;;;;;;7.77;7.07;;;;;;;8.57;74.26;95992.66;4885901;29;20263;-82
2021/05/03 01:39:39;;;;;;;7.87;7.17;;;;;;;8.65;73.37;96002.16;4883042;29;20227;-82
2021/05/03 01:42:06;;;;;;;8.50;7.70;;;;;;;8.59;74.21;95995.06;4900060;29;20223;-80
2021/05/03 01:44:32;;;;;;;8.60;7.77;;;;;;;8.62;74.49;96003.28;4899057;29;20241;-83
2021/05/03 01:46:58;;;;;;;8.60;7.73;;;;;;;8.60;73.77;95994.13;4893188;29;20227;-83
2021/05/03 01:49:26;;;;;;;9.60;8.70;;;;;;;8.60;74.23;95997.50;4900484;29;20241;-81
2021/05/03 01:51:53;;;;;;;8.50;7.70;;;;;;;8.63;74.31;95993.81;4892266;29;20214;-82
2021/05/03 01:54:20;;;;;;;9.00;8.20;;;;;;;8.70;74.01;96001.69;4881454;29;20204;-82
2021/05/03 01:56:47;;;;;;;8.67;7.87;;;;;;;8.73;73.96;96001.38;4888323;29;20612;-81
2021/05/03 01:59:13;;;;;;;8.87;8.10;;;;;;;8.76;73.80;95999.31;4881336;29;20232;-82
2021/05/03 02:01:39;;;;;;;9.43;8.63;;;;;;;8.77;74.39;95998.34;4897107;29;20231;-80
2021/05/03 02:04:06;;;;;;;9.10;8.30;;;;;;;8.76;73.61;95999.31;4900413;29;20245;-83
2021/05/03 02:06:32;;;;;;;8.73;8.00;;;;;;;8.82;73.62;96001.28;4898978;29;20199;-82
2021/05/03 02:08:58;;;;;;;9.33;8.43;;;;;;;8.83;73.62;96008.00;4885747;29;20199;-81
2021/05/03 02:11:24;;;;;;;8.53;7.73;;;;;;;8.81;73.78;96017.63;4892195;29;20241;-82
2021/05/03 02:13:51;;;;;;;9.53;8.63;;;;;;;8.83;73.77;96015.72;4892289;29;20219;-81
2021/05/03 02:16:17;;;;;;;11.17;8.03;;;;;;;8.83;73.63;96013.16;4890393;29;20289;-83
2021/05/03 02:18:43;;;;;;;8.70;8.00;;;;;;;8.75;73.80;96009.72;4889320;29;20807;-83
2021/05/03 02:21:09;;;;;;;8.17;7.47;;;;;;;8.71;73.74;96014.38;4880619;29;20216;-82
2021/05/03 02:23:35;;;;;;;8.40;7.70;;;;;;;8.56;74.04;96011.59;4888944;29;20633;-80
2021/05/03 02:26:01;;;;;;;8.73;7.83;;;;;;;8.61;74.18;96009.38;4891953;29;20199;-80
2021/05/03 02:28:27;;;;;;;9.50;8.60;;;;;;;8.58;74.79;96004.53;4880724;29;20211;-79
2021/05/03 02:30:54;;;;;;;8.73;7.97;;;;;;;8.61;74.36;96006.81;4886828;29;20227;-80
2021/05/03 02:33:20;;;;;;;8.83;8.03;;;;;;;8.58;74.57;96004.53;4898050;29;20290;-80
2021/05/03 02:35:46;;;;;;;9.00;8.20;;;;;;;8.57;74.86;96005.50;4891775;29;20236;-82
2021/05/03 02:38:12;;;;;;;8.77;8.07;;;;;;;8.61;74.89;96006.00;4880493;29;20210;-82
2021/05/03 02:40:38;;;;;;;9.00;8.23;;;;;;;8.50;75.42;96004.50;4881397;29;20314;-82
2021/05/03 02:43:05;;;;;;;9.37;8.50;;;;;;;8.56;74.86;96003.88;4888223;29;20345;-82
2021/05/03 02:45:31;;;;;;;9.63;8.77;;;;;;;8.54;74.96;96005.78;4893879;29;20212;-78
2021/05/03 02:47:59;;;;;;;9.73;8.83;;;;;;;8.55;75.45;96009.97;4880422;29;20259;-82
2021/05/03 02:50:26;;;;;;;9.77;8.87;;;;;;;8.52;75.64;96002.56;4883756;29;20223;-81
2021/05/03 02:52:53;;;;;;;9.10;8.30;;;;;;;8.59;75.74;96013.03;4898419;29;20290;-81
2021/05/03 02:55:21;;;;;;;9.60;8.60;;;;;;;8.63;75.36;96010.03;4890758;29;20199;-81
2021/05/03 02:57:47;;;;;;;9.27;8.47;;;;;;;8.68;75.36;96013.88;4879270;29;20211;-82
2021/05/03 03:00:16;;;;;;;9.93;9.03;;;;;;;8.72;74.89;96013.41;4885440;29;20222;-80
2021/05/03 03:02:42;;;;;;;9.17;8.27;;;;;;;8.78;74.63;96012.81;4897981;29;20222;-81
2021/05/03 03:05:10;;;;;;;9.43;8.53;;;;;;;8.78;74.95;96012.81;4898727;29;20693;-79
2021/05/03 03:07:36;;;;;;;9.77;8.97;;;;;;;8.79;74.92;96021.31;4895580;29;20230;-79
2021/05/03 03:10:02;;;;;;;9.13;8.33;;;;;;;8.79;74.72;96008.47;4884041;29;20235;-82
2021/05/03 03:12:28;;;;;;;9.63;8.63;;;;;;;8.66;74.98;96014.81;4898711;29;20289;-79
2021/05/03 03:14:54;;;;;;;9.47;8.50;;;;;;;8.68;74.98;96017.25;4881440;29;20204;-80
2021/05/03 03:17:20;;;;;;;9.50;8.60;;;;;;;8.74;74.97;96015.81;4880278;29;20204;-80
2021/05/03 03:19:47;;;;;;;9.87;8.97;;;;;;;8.75;74.51;96020.00;4891825;29;20218;-82
2021/05/03 03:22:14;;;;;;;9.63;8.73;;;;;;;8.77;74.38;96011.19;4879007;29;20231;-82
2021/05/03 03:24:40;;;;;;;9.07;8.17;;;;;;;8.69;75.14;96013.72;4881622;29;20226;-82
2021/05/03 03:27:06;;;;;;;9.60;8.80;;;;;;;8.71;75.45;96018.69;4880310;29;20745;-81
2021/05/03 03:29:32;;;;;;;9.73;8.83;;;;;;;8.70;76.00;96017.91;4892024;29;20206;-82
2021/05/03 03:31:58;;;;;;;9.00;8.20;;;;;;;8.62;76.25;96017.88;4879838;29;20208;-82
2021/05/03 03:34:24;;;;;;;10.37;9.37;;;;;;;8.66;75.72;96017.38;4890247;29;20203;-82
2021/05/03 03:36:50;;;;;;;9.17;8.37;;;;;;;8.74;75.18;96024.34;4885130;29;20203;-82
2021/05/03 03:39:17;;;;;;;9.73;8.93;;;;;;;8.74;75.43;96026.09;4888214;29;20230;-81
2021/05/03 03:41:43;;;;;;;8.50;7.80;;;;;;;8.75;74.96;96031.06;4881497;29;20683;-82
2021/05/03 03:44:09;;;;;;;9.33;8.53;;;;;;;8.72;74.64;96033.94;4886394;29;20199;-79
2021/05/03 03:46:35;;;;;;;9.20;8.40;;;;;;;8.70;74.81;96038.44;4902646;29;20214;-82
2021/05/03 03:49:02;;;;;;;8.83;8.03;;;;;;;8.65;74.59;96036.34;4896833;29;20263;-82
2021/05/03 03:51:27;;;;;;;9.40;8.50;;;;;;;8.52;75.41;96040.25;4898623;29;20211;-78
2021/05/03 03:53:54;;;;;;;9.20;8.40;;;;;;;8.53;74.85;96039.31;4895650;29;20262;-82
2021/05/03 03:56:22;;;;;;;9.00;8.17;;;;;;;8.51;74.28;96049.72;4895681;29;20196;-80
2021/05/03 03:58:49;;;;;;;8.63;7.83;;;;;;;8.46;73.88;96057.09;4889710;29;20203;-82
2021/05/03 04:01:15;;;;;;;8.70;7.90;;;;;;;8.37;74.71;96058.00;4901835;29;20203;-80
2021/05/03 04:03:46;;;;;;;8.87;8.10;;;;;;;8.27;75.48;96060.59;4895769;29;20246;-79
2021/05/03 04:06:19;;;;;;;9.33;8.50;;;;;;;8.19;75.58;96062.31;4883189;29;20196;-83
2021/05/03 04:08:51;;;;;;;9.63;8.73;;;;;;;8.14;76.29;96064.53;4886550;29;20864;-81
2021/05/03 04:11:27;;;;;;;9.03;8.23;;;;;;;8.22;74.84;96062.03;4887015;29;20227;-82
2021/05/03 04:14:19;;;;;;;8.87;8.00;;;;;;;8.21;74.45;96057.84;4901265;29;20223;-79
2021/05/03 04:22:36;;;;;;;8.80;8.00;;;;;;;8.22;74.49;96069.72;4889795;29;20233;-79
2021/05/03 04:25:11;;;;;;;9.03;8.13;;;;;;;8.21;74.86;96078.38;4893145;29;20203;-80
2021/05/03 04:27:38;;;;;;;9.33;8.53;;;;;;;8.12;75.31;96080.06;4901686;29;20531;-82
2021/05/03 04:30:08;;;;;;;9.07;8.27;;;;;;;8.13;75.55;96084.25;4898979;29;20195;-79
2021/05/03 04:32:34;;;;;;;8.63;7.83;;;;;;;8.25;75.74;96085.63;4902236;29;20255;-82
2021/05/03 04:35:01;;;;;;;8.53;7.63;;;;;;;8.30;74.39;96085.16;4886592;29;20204;-82
2021/05/03 04:37:27;;;;;;;9.03;8.13;;;;;;;8.27;74.28;96088.03;4882488;29;20214;-83
2021/05/03 04:39:53;;;;;;;8.67;7.20;;;;;;;8.46;76.23;96089.66;4896021;29;20222;-80
2021/05/03 04:42:19;;;;;;;8.70;7.80;;;;;;;8.54;73.74;96085.34;4891079;29;20757;-82
2021/05/03 04:44:45;;;;;;;8.03;7.20;;;;;;;8.74;74.97;96085.13;4901971;29;20206;-79
2021/05/03 04:47:12;;;;;;;8.67;7.87;;;;;;;8.72;71.78;96090.44;4893988;29;20204;-82
2021/05/03 04:49:38;;;;;;;9.30;8.37;;;;;;;8.71;71.55;96090.56;4882681;29;20576;-83
2021/05/03 04:52:04;;;;;;;14.67;13.17;;;;;;;8.64;71.83;96086.06;4896163;29;20287;-82
2021/05/03 04:54:30;;;;;;;9.93;9.07;;;;;;;8.63;71.71;96093.91;4880599;29;20259;-80
2021/05/03 04:56:56;;;;;;;8.60;7.80;;;;;;;8.65;71.94;96094.56;4886662;29;20659;-79
2021/05/03 04:59:22;;;;;;;8.20;7.50;;;;;;;8.66;71.71;96091.03;4900924;29;20613;-80
2021/05/03 05:01:48;;;;;;;8.23;7.53;;;;;;;8.61;71.88;96093.25;4884703;29;20219;-81
2021/05/03 05:04:15;;;;;;;10.00;9.00;;;;;;;8.45;72.21;96099.09;4880685;29;20200;-81
2021/05/03 05:06:41;;;;;;;8.30;7.60;;;;;;;8.40;72.84;96098.75;4894446;29;20631;-82
2021/05/03 05:09:08;;;;;;;8.23;7.53;;;;;;;8.48;72.81;96096.22;4892192;29;20275;-79
2021/05/03 05:11:34;;;;;;;8.00;7.30;;;;;;;8.55;72.71;96092.09;4893214;29;20230;-81
2021/05/03 05:14:00;;;;;;;8.50;7.70;;;;;;;8.60;72.31;96094.22;4892354;29;20230;-79
2021/05/03 05:16:27;;;;;;;8.53;7.80;;;;;;;8.62;72.65;96100.00;4880798;29;20218;-81
2021/05/03 05:18:53;;;;;;;8.60;7.80;;;;;;;8.58;72.62;96104.63;4884508;29;20211;-80
2021/05/03 05:21:20;;;;;;;8.67;7.90;;;;;;;8.54;72.51;96105.88;4882899;29;20207;-80
2021/05/03 05:23:48;;;;;;;8.13;7.33;;;;;;;8.55;72.72;96116.97;4888571;29;20228;-81
2021/05/03 05:26:14;;;;;;;8.63;7.77;;;;;;;8.41;72.70;96113.19;4897855;29;20274;-81
2021/05/03 05:28:40;;;;;;;8.23;7.53;;;;;;;8.56;72.90;96110.88;4899628;29;20207;-80
2021/05/03 05:31:06;;;;;;;8.67;7.77;;;;;;;8.70;72.67;96105.16;4888555;29;20305;-81
2021/05/03 05:33:32;;;;;;;8.90;8.00;;;;;;;8.73;72.03;96104.88;4898953;29;20376;-80
2021/05/03 05:35:58;;;;;;;8.20;7.40;;;;;;;8.82;72.34;96116.00;4885076;29;20214;-81
2021/05/03 05:38:24;;;;;;;8.00;7.30;;;;;;;8.76;71.75;96116.59;4894424;29;20670;-79
2021/05/03 05:40:50;;;;;;;8.43;7.63;;;;;;;8.69;71.95;96110.47;4898152;29;20226;-83
2021/05/03 05:43:16;;;;;;;8.57;7.77;;;;;;;8.62;71.48;96116.22;4893005;29;20260;-82
2021/05/03 05:45:42;;;;;;;8.67;7.90;;;;;;;8.71;72.24;96123.94;4880017;29;20220;-82
2021/05/03 05:48:08;;;;;;;8.30;7.50;;;;;;;8.79;71.82;96122.25;4884785;29;20230;-80
2021/05/03 05:50:34;;;;;;;8.40;7.63;;;;;;;8.70;71.53;96118.00;4899303;29;20203;-80
2021/05/03 05:53:01;;;;;;;8.07;7.27;;;;;;;8.74;70.95;96121.88;4884410;29;20219;-81
2021/05/03 05:55:27;;;;;;;7.73;7.13;;;;;;;8.83;71.23;96122.75;4898954;29;20207;-79
2021/05/03 05:57:53;;;;;;;7.70;7.00;;;;;;;8.81;71.00;96127.22;4883263;29;20203;-82
2021/05/03 06:00:20;;;;;;;8.40;7.70;;;;;;;8.82;70.91;96127.09;4881599;29;20223;-82
2021/05/03 06:02:46;;;;;;;8.60;7.80;;;;;;;8.81;70.86;96124.66;4893458;29;20227;-79
2021/05/03 06:05:14;;;;;;;9.13;8.23;;;;;;;8.93;70.89;96123.44;4899617;29;20214;-79
2021/05/03 06:07:40;;;;;;;8.60;7.70;;;;;;;9.09;70.36;96135.53;4890513;29;20214;-83
2021/05/03 06:10:07;;;;;;;8.63;7.83;;;;;;;9.17;69.32;96131.25;4882429;29;20347;-83
2021/05/03 06:12:34;;;;;;;9.00;8.20;;;;;;;9.16;68.97;96131.41;4890186;29;20686;-83
2021/05/03 06:15:00;;;;;;;9.00;8.10;;;;;;;9.18;68.09;96130.31;4890733;29;20203;-82
2021/05/03 06:17:34;;;;;;;10.93;8.17;;;;;;;9.21;68.37;96136.91;4890390;29;20211;-80
2021/05/03 06:20:00;;;;;;;8.03;7.23;;;;;;;9.27;67.94;96131.13;4881465;29;20310;-81
2021/05/03 06:22:32;;;;;;;8.20;7.50;;;;;;;9.36;68.01;96137.91;4883314;29;20219;-81
2021/05/03 06:25:00;;;;;;;8.40;7.60;;;;;;;9.37;67.31;96154.94;4898720;29;20301;-83
2021/05/03 06:27:30;;;;;;;8.27;7.50;;;;;;;9.46;67.31;96142.91;4884440;29;20255;-81
2021/05/03 06:30:01;;;;;;;8.10;7.40;;;;;;;9.54;66.78;96146.34;4880109;29;20248;-80
2021/05/03 06:32:30;;;;;;;8.43;7.60;;;;;;;9.66;67.13;96145.06;4894886;29;20237;-79
2021/05/03 06:35:06;;;;;;;8.80;7.77;;;;;;;9.76;66.72;96139.81;4898719;29;20210;-81
2021/05/03 06:37:41;;;;;;;8.13;7.40;;;;;;;9.77;66.63;96145.75;4891547;29;20290;-83
2021/05/03 06:40:09;;;;;;;8.77;7.97;;;;;;;9.84;67.13;96149.28;4890326;29;20772;-80
2021/05/03 06:42:41;;;;;;;8.43;7.73;;;;;;;9.95;65.50;96146.44;4902276;29;20436;-82
2021/05/03 06:45:12;;;;;;;9.77;7.53;;;;;;;9.93;64.97;96159.44;4901664;29;20209;-83
2021/05/03 06:47:41;;;;;;;8.30;7.50;;;;;;;9.95;64.12;96157.53;4895811;29;20227;-79
2021/05/03 06:50:12;;;;;;;8.10;7.30;;;;;;;10.02;64.81;96150.75;4895283;29;20209;-81
2021/05/03 06:52:38;;;;;;;8.37;7.57;;;;;;;10.09;64.89;96156.09;4880221;29;20231;-81
2021/05/03 06:55:06;;;;;;;9.43;7.83;;;;;;;9.97;64.51;96155.59;4883516;29;20218;-81
2021/05/03 06:57:32;;;;;;;7.90;7.10;;;;;;;9.92;64.74;96157.84;4887961;29;20203;-82
2021/05/03 06:59:58;;;;;;;8.07;7.27;;;;;;;9.93;64.52;96162.03;4878819;29;20227;-81
2021/05/03 07:02:25;;;;;;;7.70;7.03;;;;;;;9.90;64.26;96157.19;4879031;29;20248;-81
2021/05/03 07:04:51;;;;;;;8.30;7.60;;;;;;;9.90;63.78;96164.09;4893349;29;20222;-82
2021/05/03 07:07:20;;;;;;;8.90;7.93;;;;;;;9.99;63.59;96169.13;4892077;29;20208;-81
2021/05/03 07:09:49;;;;;;;9.00;7.57;;;;;;;9.85;63.37;96161.19;4882094;29;20234;-81
2021/05/03 07:12:20;;;;;;;7.90;7.10;;;;;;;9.82;62.68;96164.88;4897432;29;20222;-82
2021/05/03 07:14:47;;;;;;;7.50;6.80;;;;;;;9.94;63.26;96167.97;4896005;29;20199;-81
2021/05/03 07:17:13;;;;;;;7.67;7.07;;;;;;;10.08;63.09;96162.19;4894916;29;20199;-81
2021/05/03 07:19:44;;;;;;;8.00;7.27;;;;;;;10.10;62.46;96160.28;4896900;29;20227;-82
2021/05/03 07:22:13;;;;;;;7.67;7.07;;;;;;;10.23;61.58;96170.13;4896030;29;20234;-79
2021/05/03 07:24:50;;;;;;;7.63;6.93;;;;;;;10.34;60.37;96172.41;4897242;29;20223;-81
2021/05/03 07:27:17;;;;;;;7.50;6.90;;;;;;;10.36;59.57;96166.13;4897557;29;20578;-81
2021/05/03 07:29:44;;;;;;;8.23;7.53;;;;;;;10.40;59.82;96166.59;4898025;29;20207;-83
2021/05/03 07:32:12;;;;;;;7.40;6.80;;;;;;;10.57;60.92;96165.66;4893445;29;20243;-82
2021/05/03 07:34:38;;;;;;;7.67;6.97;;;;;;;10.48;59.76;96166.59;4893417;29;20204;-81
2021/05/03 07:37:07;;;;;;;7.60;6.90;;;;;;;10.46;59.99;96165.94;4878364;29;20299;-82
2021/05/03 07:39:40;;;;;;;7.30;6.53;;;;;;;10.54;59.31;96163.38;4889748;29;20229;-82
2021/05/03 07:42:07;;;;;;;8.23;6.93;;;;;;;10.56;58.18;96160.66;4883960;29;21941;-81
2021/05/03 07:44:38;;;;;;;7.60;6.90;;;;;;;10.88;57.77;96158.03;4878157;29;20238;-81
2021/05/03 07:47:05;;;;;;;7.50;6.70;;;;;;;11.11;57.39;96147.84;4889423;29;20564;-82
2021/05/03 07:49:31;;;;;;;7.47;6.83;;;;;;;11.20;56.43;96154.56;4884631;29;20206;-80
2021/05/03 07:51:57;;;;;;;6.60;6.03;;;;;;;11.20;57.03;96149.41;4889041;29;20202;-79
2021/05/03 07:54:27;;;;;;;6.97;6.37;;;;;;;11.29;56.59;96152.75;4884867;29;20203;-79
2021/05/03 07:56:53;;;;;;;8.63;6.17;;;;;;;11.18;56.45;96153.91;4886091;29;20218;-82
2021/05/03 07:59:19;;;;;;;6.17;5.53;;;;;;;11.06;56.32;96152.66;4890183;29;20706;-82
2021/05/03 08:01:45;;;;;;;6.20;5.63;;;;;;;10.98;56.60;96158.63;4889969;29;20207;-80
2021/05/03 08:04:11;;;;;;;7.37;6.33;;;;;;;10.85;54.90;96150.63;4886429;29;20211;-81
2021/05/03 08:06:37;;;;;;;7.93;6.07;;;;;;;11.08;53.77;96146.38;4877855;29;20214;-80
2021/05/03 08:09:05;;;;;;;7.10;6.43;;;;;;;11.50;54.81;96155.59;4887004;29;20198;-82
2021/05/03 08:11:33;;;;;;;6.30;5.70;;;;;;;11.83;52.97;96145.13;4893419;29;20286;-80
2021/05/03 08:13:59;;;;;;;6.07;5.43;;;;;;;11.85;52.16;96141.41;4891820;29;20272;-79
2021/05/03 08:16:27;;;;;;;6.33;5.83;;;;;;;11.58;52.38;96152.16;4876854;29;20840;-81
2021/05/03 08:18:53;;;;;;;6.00;5.40;;;;;;;11.39;52.10;96151.59;4896676;29;20203;-82
2021/05/03 08:21:19;;;;;;;6.10;5.60;;;;;;;11.06;50.01;96157.81;4894960;29;20218;-81
2021/05/03 08:23:45;;;;;;;6.57;5.97;;;;;;;11.01;50.78;96160.09;4891680;29;20227;-81
2021/05/03 08:26:11;;;;;;;6.60;6.00;;;;;;;11.01;53.25;96160.09;4877225;29;20572;-80
2021/05/03 08:28:39;;;;;;;6.17;5.50;;;;;;;11.03;53.46;96164.09;4882857;29;20203;-81
2021/05/03 08:31:05;;;;;;;6.30;5.30;;;;;;;11.10;53.68;96153.97;4886871;29;20210;-83
2021/05/03 08:36:27;;;;;;;7.43;5.70;;;;;;;10.87;53.34;96161.56;4882048;29;20200;-82
2021/05/03 08:38:53;;;;;;;6.60;5.87;;;;;;;10.80;54.02;96163.19;4892856;29;20295;-82
2021/05/03 08:41:19;;;;;;;5.97;5.47;;;;;;;10.81;52.02;96157.06;4881654;29;20861;-81
2021/05/03 08:43:48;;;;;;;6.47;5.93;;;;;;;11.22;52.47;96149.22;4898982;29;20741;-81
2021/05/03 08:46:25;;;;;;;6.37;5.77;;;;;;;11.61;51.64;96162.13;4895154;29;20304;-81
2021/05/03 08:48:56;;;;;;;6.70;6.03;;;;;;;11.45;51.66;96154.47;4881212;29;20214;-81
2021/05/03 08:51:31;;;;;;;5.70;5.17;;;;;;;11.42;51.96;96158.19;4884532;29;20195;-80
2021/05/03 08:54:02;;;;;;;5.57;5.17;;;;;;;11.36;52.90;96153.69;4899274;29;20274;-82
2021/05/03 08:56:28;;;;;;;5.63;5.13;;;;;;;11.69;51.23;96149.22;4888306;29;20211;-79
2021/05/03 08:58:55;;;;;;;5.47;4.97;;;;;;;12.20;48.86;96141.81;4898882;29;20214;-81
2021/05/03 09:01:22;;;;;;;5.87;5.30;;;;;;;12.77;47.94;96149.91;4892209;29;20272;-82
2021/05/03 09:03:51;;;;;;;4.93;4.53;;;;;;;13.13;47.53;96148.22;4890335;29;20252;-80
2021/05/03 09:06:17;;;;;;;5.00;4.50;;;;;;;13.30;45.14;96141.13;4888897;29;20238;-78
2021/05/03 09:08:43;;;;;;;5.30;4.30;;;;;;;13.69;45.30;96145.97;4894967;29;20384;-82
2021/05/03 09:11:14;;;;;;;4.77;4.30;;;;;;;13.72;44.51;96148.19;4898166;29;20775;-79
2021/05/03 09:13:41;;;;;;;4.40;4.00;;;;;;;13.26;43.63;96141.69;4885482;29;20228;-81
2021/05/03 09:16:18;;;;;;;6.13;3.53;;;;;;;13.29;42.04;96144.69;4886971;29;20203;-79
2021/05/03 09:18:44;;;;;;;3.93;3.60;;;;;;;13.24;42.99;96138.47;4899258;29;20206;-80
2021/05/03 09:21:20;;;;;;;3.97;3.60;;;;;;;12.88;43.27;96141.72;4896225;29;20251;-81
2021/05/03 09:24:03;;;;;;;5.97;4.33;;;;;;;12.43;45.52;96145.19;4898834;29;20237;-81
2021/05/03 09:26:35;;;;;;;3.90;3.60;;;;;;;12.20;47.14;96142.63;4898648;29;20207;-81
2021/05/03 09:29:01;;;;;;;4.40;4.00;;;;;;;12.48;48.21;96131.75;4898913;29;20270;-81
2021/05/03 09:31:28;;;;;;;4.50;4.07;;;;;;;12.66;47.62;96134.84;4888836;29;20210;-83
2021/05/03 09:33:53;;;;;;;4.60;4.20;;;;;;;12.73;48.09;96125.38;4879983;29;20711;-80
2021/05/03 09:36:22;;;;;;;4.80;4.40;;;;;;;13.13;47.76;96122.38;4887361;29;20251;-82
2021/05/03 09:38:49;;;;;;;5.33;4.17;;;;;;;13.01;46.78;96115.25;4898230;29;20267;-82
2021/05/03 09:41:18;;;;;;;4.20;3.80;;;;;;;13.08;47.24;96122.09;4897889;29;20226;-81
2021/05/03 09:43:47;;;;;;;4.60;4.20;;;;;;;13.02;46.58;96115.06;4897956;29;20230;-79
2021/05/03 09:46:34;;;;;;;4.30;3.90;;;;;;;12.76;46.65;96118.09;4890676;29;20271;-83
2021/05/03 09:49:02;;;;;;;4.37;4.07;;;;;;;12.39;45.17;96121.50;4880186;29;20211;-80
2021/05/03 09:51:33;;;;;;;4.87;4.30;;;;;;;11.98;49.40;96153.75;4883107;29;20200;-81
2021/05/03 09:54:09;;;;;;;4.70;4.30;;;;;;;11.53;52.21;96149.28;4882188;29;20231;-81
2021/05/03 09:56:54;;;;;;;4.10;3.70;;;;;;;11.29;50.66;96145.03;4879910;29;20223;-83
2021/05/03 09:59:31;;;;;;;3.83;3.53;;;;;;;11.39;51.66;96145.63;4879846;29;20338;-82
2021/05/03 10:02:08;;;;;;;4.03;3.63;;;;;;;12.25;52.15;96145.50;4879611;29;20267;-82
2021/05/03 10:04:36;;;;;;;5.60;3.90;;;;;;;12.98;51.84;96133.69;4886816;29;20199;-82
2021/05/03 10:07:03;;;;;;;4.40;4.00;;;;;;;13.33;49.77;96129.63;4898112;29;20207;-80
2021/05/03 10:09:30;;;;;;;4.53;4.23;;;;;;;13.56;49.87;96132.09;4898478;29;20211;-82
2021/05/03 10:15:16;;;;;;;5.03;4.63;;;;;;;14.18;46.81;96122.00;4885268;29;20274;-81
2021/05/03 10:17:44;;;;;;;4.57;4.17;;;;;;;14.50;43.95;96118.91;4898374;29;20202;-81
2021/05/03 10:20:13;;;;;;;5.20;4.00;;;;;;;14.80;44.65;96110.97;4898733;29;20230;-82
2021/05/03 10:22:40;;;;;;;5.00;4.53;;;;;;;14.69;47.77;96114.88;4897916;29;20227;-81
2021/05/03 10:25:10;;;;;;;4.33;4.03;;;;;;;14.00;46.35;96113.84;4898676;29;20235;-81
2021/05/03 10:27:40;;;;;;;4.63;4.00;;;;;;;13.79;46.53;96120.63;4898227;29;20211;-80
2021/05/03 10:30:11;;;;;;;4.83;4.43;;;;;;;13.54;48.21;96123.69;4898653;29;20207;-82
2021/05/03 10:32:38;;;;;;;4.67;3.93;;;;;;;13.23;48.95;96123.94;4898717;29;20234;-82
2021/05/03 10:35:07;;;;;;;4.90;4.50;;;;;;;12.94;49.02;96117.75;4898179;29;20203;-80
2021/05/03 10:37:42;;;;;;;5.03;4.60;;;;;;;13.05;47.72;96119.91;4898562;29;20214;-80
2021/05/03 10:40:51;;;;;;;4.80;4.40;;;;;;;12.92;48.53;96114.53;4898513;29;20673;-83
2021/05/03 10:43:20;;;;;;;4.87;4.10;;;;;;;12.75;48.22;96115.66;4897726;29;20236;-82
2021/05/03 10:48:59;;;;;;;4.70;4.30;;;;;;;12.73;48.22;96112.47;4852950;29;20233;-81
2021/05/03 10:51:47;;;;;;;5.33;4.43;;;;;;;13.26;47.73;96097.72;4857968;29;20660;-80
2021/05/03 10:54:51;;;;;;;4.60;4.20;;;;;;;13.88;47.11;96086.84;4883492;29;20246;-80
2021/05/03 10:57:36;;;;;;;4.60;4.20;;;;;;;14.02;45.42;96080.81;4897866;29;20219;-82
2021/05/03 11:00:08;;;;;;;4.37;4.00;;;;;;;13.66;46.37;96086.03;4896933;29;20226;-79
2021/05/03 11:02:46;;;;;;;4.90;4.40;;;;;;;13.38;44.97;96089.31;4888562;29;20623;-82
2021/05/03 11:05:22;;;;;;;4.50;4.10;;;;;;;13.29;45.48;96087.78;4895546;29;20210;-81
2021/05/03 11:08:28;;;;;;;4.47;4.07;;;;;;;13.38;44.57;96083.34;4891102;29;20263;-79
2021/05/03 11:11:04;;;;;;;4.53;4.13;;;;;;;13.55;44.04;96079.53;4878575;29;20227;-81
2021/05/03 11:13:58;;;;;;;4.33;3.93;;;;;;;13.48;45.05;96070.91;4878377;29;20235;-82
2021/05/03 11:16:49;;;;;;;4.53;4.13;;;;;;;13.27;45.89;96073.47;4886387;29;20198;-82
2021/05/03 11:19:55;;;;;;;4.10;3.77;;;;;;;12.95;46.43;96072.00;4896909;29;20270;-79
2021/05/03 11:22:24;;;;;;;4.70;4.30;;;;;;;12.66;46.99;96067.66;4894281;29;20271;-82
2021/05/03 11:24:54;;;;;;;5.20;4.27;;;;;;;12.50;47.45;96070.41;4886416;29;20204;-81
2021/05/03 11:27:35;;;;;;;5.07;4.57;;;;;;;12.41;48.16;96059.34;4881898;29;20203;-81
2021/05/03 11:30:05;;;;;;;5.27;4.77;;;;;;;12.52;47.00;96051.16;4891179;29;20199;-81
2021/05/03 11:32:35;;;;;;;4.80;4.40;;;;;;;12.63;46.78;96058.47;4888110;29;20234;-82
2021/05/03 11:35:09;;;;;;;4.90;4.00;;;;;;;12.73;47.21;96053.03;4897649;29;20207;-80
2021/05/03 11:37:43;;;;;;;4.57;4.17;;;;;;;12.90;46.63;96049.28;4888153;29;20207;-81
2021/05/03 11:40:22;;;;;;;4.47;4.17;;;;;;;12.95;46.00;96053.94;4879299;29;20247;-81
2021/05/03 11:45:30;;;;;;;5.03;3.97;;;;;;;13.28;52.51;96044.81;4907890;29;20488;-82
2021/05/03 11:47:57;;;;;;;6.03;4.27;;;;;;;13.35;44.38;96039.72;4890755;29;20204;-81
2021/05/03 11:50:25;;;;;;;4.70;4.27;;;;;;;13.26;43.62;96048.59;4878175;29;20284;-80
2021/05/03 11:52:51;;;;;;;4.40;4.00;;;;;;;13.05;44.20;96044.13;4878212;29;20228;-79
2021/05/03 11:55:19;;;;;;;6.03;4.20;;;;;;;12.92;43.96;96036.19;4881882;29;20773;-79
2021/05/03 11:57:46;;;;;;;4.43;4.03;;;;;;;12.86;43.68;96042.09;4878928;29;20196;-80
2021/05/03 12:00:15;;;;;;;5.20;4.70;;;;;;;12.97;43.80;96031.28;4887142;29;20222;-79
2021/05/03 12:02:41;;;;;;;6.07;4.57;;;;;;;13.49;44.24;96034.50;4878838;29;20621;-82
2021/05/03 12:05:15;;;;;;;4.67;4.23;;;;;;;13.93;43.27;96030.13;4880125;29;20210;-78